createdAt,value
2019-03-17T00:00:57.739Z,982.40
2019-03-17T00:01:58.026Z,982.43
2019-03-17T00:02:57.816Z,982.43
2019-03-17T00:03:57.857Z,982.42
2019-03-17T00:04:57.897Z,982.38
2019-03-17T00:05:57.933Z,982.39
2019-03-17T00:06:57.965Z,982.37
2019-03-17T00:07:58.010Z,982.32
2019-03-17T00:08:58.045Z,982.31
2019-03-17T00:09:58.084Z,982.34
2019-03-17T00:10:58.117Z,982.32
2019-03-17T00:11:58.159Z,982.33
2019-03-17T00:12:58.201Z,982.31
2019-03-17T00:13:58.233Z,982.27
2019-03-17T00:15:05.319Z,982.25
2019-03-17T00:15:58.306Z,982.24
2019-03-17T00:16:58.343Z,982.24
2019-03-17T00:17:58.383Z,982.28
2019-03-17T00:18:58.428Z,982.28
2019-03-17T00:19:58.472Z,982.22
2019-03-17T00:20:58.504Z,982.20
2019-03-17T00:21:58.547Z,982.16
2019-03-17T00:22:58.573Z,982.22
2019-03-17T00:23:58.621Z,982.17
2019-03-17T00:25:08.508Z,982.15
2019-03-17T00:25:58.815Z,982.14
2019-03-17T00:26:58.728Z,982.15
2019-03-17T00:27:58.838Z,982.10
2019-03-17T00:28:58.808Z,982.11
2019-03-17T00:29:58.840Z,982.05
2019-03-17T00:30:58.877Z,982.08
2019-03-17T00:31:58.929Z,982.14
2019-03-17T00:32:58.961Z,982.02
2019-03-17T00:33:59.017Z,982.07
2019-03-17T00:34:59.029Z,982.09
2019-03-17T00:35:59.076Z,982.05
2019-03-17T00:36:59.111Z,982.04
2019-03-17T00:37:59.145Z,982.01
2019-03-17T00:38:59.182Z,982.03
2019-03-17T00:39:59.230Z,982.06
2019-03-17T00:40:59.259Z,982.04
2019-03-17T00:41:59.300Z,982.02
2019-03-17T00:42:59.335Z,981.96
2019-03-17T00:43:59.375Z,981.94
2019-03-17T00:44:59.418Z,981.95
2019-03-17T00:45:59.448Z,981.90
2019-03-17T00:46:59.490Z,981.93
2019-03-17T00:47:59.525Z,981.89
2019-03-17T00:48:59.562Z,981.91
2019-03-17T00:49:59.605Z,981.90
2019-03-17T00:50:59.639Z,981.84
2019-03-17T00:51:59.689Z,981.83
2019-03-17T00:52:59.722Z,981.84
2019-03-17T00:53:59.768Z,981.81
2019-03-17T00:54:59.798Z,981.78
2019-03-17T00:55:59.827Z,981.73
2019-03-17T00:56:59.970Z,981.74
2019-03-17T00:57:59.942Z,981.71
2019-03-17T00:58:59.949Z,981.69
2019-03-17T00:59:59.983Z,981.65
2019-03-17T01:01:00.102Z,981.68
2019-03-17T01:02:00.164Z,981.64
2019-03-17T01:03:00.094Z,981.64
2019-03-17T01:04:00.136Z,981.61
2019-03-17T01:05:00.333Z,981.56
2019-03-17T01:06:00.223Z,981.53
2019-03-17T01:07:00.249Z,981.47
2019-03-17T01:08:00.283Z,981.44
2019-03-17T01:09:00.323Z,981.43
2019-03-17T01:10:00.361Z,981.38
2019-03-17T01:11:00.397Z,981.36
2019-03-17T01:12:00.444Z,981.33
2019-03-17T01:13:00.477Z,981.34
2019-03-17T01:14:00.512Z,981.27
2019-03-17T01:15:00.556Z,981.28
2019-03-17T01:16:00.589Z,981.26
2019-03-17T01:17:00.624Z,981.25
2019-03-17T01:18:00.670Z,981.25
2019-03-17T01:19:00.702Z,981.16
2019-03-17T01:20:00.745Z,981.19
2019-03-17T01:21:00.782Z,981.18
2019-03-17T01:22:00.822Z,981.18
2019-03-17T01:23:00.898Z,981.17
2019-03-17T01:24:00.898Z,981.18
2019-03-17T01:25:00.926Z,981.17
2019-03-17T01:26:00.976Z,981.19
2019-03-17T01:27:01.003Z,981.19
2019-03-17T01:28:01.047Z,981.18
2019-03-17T01:29:01.077Z,981.17
2019-03-17T01:30:01.125Z,981.09
2019-03-17T01:31:01.158Z,981.10
2019-03-17T01:32:01.199Z,981.04
2019-03-17T01:33:01.231Z,981.07
2019-03-17T01:34:01.276Z,981.04
2019-03-17T01:35:09.023Z,981.04
2019-03-17T01:36:01.346Z,981.02
2019-03-17T01:37:01.377Z,980.97
2019-03-17T01:38:01.415Z,980.99
2019-03-17T01:39:01.462Z,980.98
2019-03-17T01:40:01.505Z,980.96
2019-03-17T01:41:01.532Z,980.92
2019-03-17T01:42:01.569Z,980.83
2019-03-17T01:43:01.605Z,980.83
2019-03-17T01:44:01.640Z,980.83
2019-03-17T01:45:01.685Z,980.80
2019-03-17T01:46:01.719Z,980.81
2019-03-17T01:47:01.760Z,980.78
2019-03-17T01:48:01.797Z,980.77
2019-03-17T01:49:01.833Z,980.75
2019-03-17T01:50:01.913Z,980.75
2019-03-17T01:51:01.904Z,980.76
2019-03-17T01:52:02.008Z,980.66
2019-03-17T01:53:01.984Z,980.67
2019-03-17T01:54:02.019Z,980.70
2019-03-17T01:55:02.067Z,980.69
2019-03-17T01:56:02.090Z,980.68
2019-03-17T01:57:02.132Z,980.69
2019-03-17T01:58:02.165Z,980.59
2019-03-17T01:59:02.203Z,980.61
2019-03-17T02:00:02.242Z,980.59
2019-03-17T02:01:02.277Z,980.60
2019-03-17T02:02:02.319Z,980.59
2019-03-17T02:03:02.363Z,980.60
2019-03-17T02:04:02.389Z,980.57
2019-03-17T02:05:02.477Z,980.57
2019-03-17T02:06:02.470Z,980.52
2019-03-17T02:07:02.507Z,980.51
2019-03-17T02:08:02.546Z,980.55
2019-03-17T02:09:02.577Z,980.51
2019-03-17T02:10:02.613Z,980.48
2019-03-17T02:11:02.649Z,980.44
2019-03-17T02:12:02.717Z,980.42
2019-03-17T02:13:02.730Z,980.38
2019-03-17T02:14:02.759Z,980.39
2019-03-17T02:15:02.796Z,980.38
2019-03-17T02:16:02.834Z,980.33
2019-03-17T02:17:02.876Z,980.30
2019-03-17T02:18:02.906Z,980.31
2019-03-17T02:19:02.999Z,980.25
2019-03-17T02:20:02.979Z,980.23
2019-03-17T02:21:03.017Z,980.23
2019-03-17T02:22:03.055Z,980.29
2019-03-17T02:23:03.093Z,980.28
2019-03-17T02:24:03.130Z,980.28
2019-03-17T02:25:03.166Z,980.23
2019-03-17T02:26:03.216Z,980.23
2019-03-17T02:27:03.241Z,980.17
2019-03-17T02:28:03.280Z,980.17
2019-03-17T02:29:03.319Z,980.13
2019-03-17T02:30:03.356Z,980.10
2019-03-17T02:31:03.460Z,980.09
2019-03-17T02:32:03.431Z,980.08
2019-03-17T02:33:03.472Z,980.06
2019-03-17T02:34:03.506Z,980.09
2019-03-17T02:35:03.537Z,980.07
2019-03-17T02:36:03.579Z,980.10
2019-03-17T02:37:03.633Z,980.12
2019-03-17T02:38:03.657Z,980.06
2019-03-17T02:39:03.702Z,980.05
2019-03-17T02:40:03.723Z,980.06
2019-03-17T02:41:03.774Z,980.03
2019-03-17T02:42:03.804Z,980.01
2019-03-17T02:43:03.842Z,979.97
2019-03-17T02:44:03.872Z,979.98
2019-03-17T02:45:03.910Z,979.93
2019-03-17T02:46:03.951Z,979.92
2019-03-17T02:47:03.984Z,979.92
2019-03-17T02:48:04.069Z,979.89
2019-03-17T02:49:04.076Z,979.91
2019-03-17T02:50:04.102Z,979.85
2019-03-17T02:51:04.134Z,979.89
2019-03-17T02:52:04.170Z,979.86
2019-03-17T02:53:04.207Z,979.86
2019-03-17T02:54:04.254Z,979.86
2019-03-17T02:55:04.282Z,979.83
2019-03-17T02:56:04.323Z,979.85
2019-03-17T02:57:04.366Z,979.87
2019-03-17T02:58:04.395Z,979.83
2019-03-17T02:59:04.435Z,979.82
2019-03-17T03:00:04.472Z,979.82
2019-03-17T03:01:04.511Z,979.76
2019-03-17T03:02:04.564Z,979.83
2019-03-17T03:03:04.585Z,979.80
2019-03-17T03:04:04.617Z,979.79
2019-03-17T03:05:04.655Z,979.75
2019-03-17T03:06:04.707Z,979.76
2019-03-17T03:07:04.740Z,979.70
2019-03-17T03:08:04.767Z,979.74
2019-03-17T03:09:04.804Z,979.76
2019-03-17T03:10:04.842Z,979.73
2019-03-17T03:11:04.885Z,979.72
2019-03-17T03:12:04.923Z,979.65
2019-03-17T03:13:04.962Z,979.60
2019-03-17T03:14:04.992Z,979.53
2019-03-17T03:15:05.029Z,979.52
2019-03-17T03:16:05.872Z,979.57
2019-03-17T03:17:05.135Z,979.56
2019-03-17T03:18:05.142Z,979.61
2019-03-17T03:19:05.175Z,979.60
2019-03-17T03:20:05.214Z,979.56
2019-03-17T03:21:05.259Z,979.52
2019-03-17T03:22:05.298Z,979.54
2019-03-17T03:23:05.326Z,979.52
2019-03-17T03:24:05.371Z,979.54
2019-03-17T03:25:05.403Z,979.52
2019-03-17T03:26:05.455Z,979.53
2019-03-17T03:27:05.478Z,979.58
2019-03-17T03:28:05.515Z,979.53
2019-03-17T03:29:05.554Z,979.54
2019-03-17T03:30:05.589Z,979.53
2019-03-17T03:31:05.628Z,979.44
2019-03-17T03:32:05.747Z,979.49
2019-03-17T03:33:05.743Z,979.49
2019-03-17T03:34:05.823Z,979.49
2019-03-17T03:35:05.801Z,979.55
2019-03-17T03:36:11.387Z,979.49
2019-03-17T03:37:05.853Z,979.48
2019-03-17T03:38:05.890Z,979.46
2019-03-17T03:39:05.928Z,979.39
2019-03-17T03:40:05.974Z,979.41
2019-03-17T03:41:06.006Z,979.39
2019-03-17T03:42:06.041Z,979.36
2019-03-17T03:43:06.083Z,979.37
2019-03-17T03:44:06.113Z,979.40
2019-03-17T03:45:06.168Z,979.37
2019-03-17T03:46:06.195Z,979.42
2019-03-17T03:47:06.237Z,979.34
2019-03-17T03:48:06.270Z,979.31
2019-03-17T03:49:06.313Z,979.35
2019-03-17T03:50:06.346Z,979.30
2019-03-17T03:51:06.377Z,979.37
2019-03-17T03:52:06.415Z,979.38
2019-03-17T03:53:06.454Z,979.35
2019-03-17T03:54:06.492Z,979.34
2019-03-17T03:55:06.530Z,979.37
2019-03-17T03:56:06.575Z,979.36
2019-03-17T03:57:06.606Z,979.38
2019-03-17T03:58:06.647Z,979.30
2019-03-17T03:59:06.688Z,979.32
2019-03-17T04:00:06.716Z,979.30
2019-03-17T04:01:06.758Z,979.24
2019-03-17T04:02:06.795Z,979.27
2019-03-17T04:03:06.831Z,979.25
2019-03-17T04:04:06.868Z,979.26
2019-03-17T04:05:06.916Z,979.20
2019-03-17T04:06:06.954Z,979.24
2019-03-17T04:07:06.986Z,979.22
2019-03-17T04:08:07.024Z,979.19
2019-03-17T04:09:07.066Z,979.11
2019-03-17T04:10:07.106Z,979.12
2019-03-17T04:11:07.182Z,979.10
2019-03-17T04:12:07.171Z,979.19
2019-03-17T04:13:07.213Z,979.17
2019-03-17T04:14:07.335Z,979.09
2019-03-17T04:15:07.286Z,979.08
2019-03-17T04:16:07.333Z,979.12
2019-03-17T04:17:07.364Z,979.08
2019-03-17T04:18:07.404Z,979.06
2019-03-17T04:19:07.441Z,979.10
2019-03-17T04:20:07.475Z,979.09
2019-03-17T04:21:07.513Z,979.13
2019-03-17T04:22:07.560Z,979.12
2019-03-17T04:23:07.590Z,979.09
2019-03-17T04:24:07.627Z,979.14
2019-03-17T04:25:07.666Z,979.07
2019-03-17T04:26:07.703Z,979.07
2019-03-17T04:27:07.762Z,979.10
2019-03-17T04:28:07.780Z,979.08
2019-03-17T04:29:07.817Z,979.09
2019-03-17T04:30:07.857Z,979.06
2019-03-17T04:31:07.899Z,979.05
2019-03-17T04:32:07.931Z,979.07
2019-03-17T04:33:07.969Z,978.99
2019-03-17T04:34:08.008Z,978.96
2019-03-17T04:35:08.047Z,978.97
2019-03-17T04:36:08.089Z,978.87
2019-03-17T04:37:08.122Z,978.92
2019-03-17T04:38:08.174Z,978.96
2019-03-17T04:39:08.204Z,978.95
2019-03-17T04:40:08.289Z,978.92
2019-03-17T04:41:08.273Z,978.96
2019-03-17T04:42:08.312Z,978.90
2019-03-17T04:43:08.351Z,978.96
2019-03-17T04:44:20.075Z,978.97
2019-03-17T04:45:08.427Z,978.95
2019-03-17T04:46:08.464Z,978.90
2019-03-17T04:47:08.508Z,978.90
2019-03-17T04:48:08.540Z,978.96
2019-03-17T04:49:08.578Z,978.85
2019-03-17T04:50:08.621Z,978.86
2019-03-17T04:51:08.705Z,978.86
2019-03-17T04:52:08.700Z,978.84
2019-03-17T04:53:08.730Z,978.90
2019-03-17T04:54:08.771Z,978.88
2019-03-17T04:55:08.810Z,978.91
2019-03-17T04:56:08.844Z,978.79
2019-03-17T04:57:08.887Z,978.77
2019-03-17T04:58:08.924Z,978.80
2019-03-17T04:59:08.962Z,978.83
2019-03-17T05:00:08.999Z,978.79
2019-03-17T05:01:09.038Z,978.83
2019-03-17T05:02:09.075Z,978.88
2019-03-17T05:03:09.114Z,978.84
2019-03-17T05:04:09.152Z,978.81
2019-03-17T05:05:09.191Z,978.86
2019-03-17T05:06:09.229Z,978.81
2019-03-17T05:07:09.268Z,978.81
2019-03-17T05:08:09.366Z,978.81
2019-03-17T05:09:09.345Z,978.77
2019-03-17T05:10:09.384Z,978.79
2019-03-17T05:11:09.421Z,978.92
2019-03-17T05:12:09.459Z,978.96
2019-03-17T05:13:09.505Z,978.94
2019-03-17T05:14:09.536Z,978.93
2019-03-17T05:15:09.581Z,978.88
2019-03-17T05:16:09.610Z,978.97
2019-03-17T05:17:09.654Z,978.93
2019-03-17T05:18:09.687Z,978.94
2019-03-17T05:19:09.727Z,978.91
2019-03-17T05:20:09.766Z,978.89
2019-03-17T05:21:09.802Z,978.91
2019-03-17T05:22:09.846Z,978.92
2019-03-17T05:23:09.879Z,978.91
2019-03-17T05:24:09.923Z,978.94
2019-03-17T05:25:09.959Z,978.93
2019-03-17T05:26:09.999Z,978.91
2019-03-17T05:27:10.033Z,978.96
2019-03-17T05:28:10.070Z,978.94
2019-03-17T05:29:10.110Z,978.93
2019-03-17T05:30:10.149Z,978.96
2019-03-17T05:31:10.188Z,978.91
2019-03-17T05:32:10.231Z,978.92
2019-03-17T05:33:10.262Z,979.02
2019-03-17T05:34:10.301Z,979.01
2019-03-17T05:35:10.340Z,978.87
2019-03-17T05:36:10.378Z,978.97
2019-03-17T05:37:10.416Z,978.95
2019-03-17T05:38:10.510Z,978.93
2019-03-17T05:39:10.499Z,978.92
2019-03-17T05:40:10.534Z,978.90
2019-03-17T05:41:10.569Z,978.93
2019-03-17T05:42:10.613Z,978.99
2019-03-17T05:43:10.646Z,979.04
2019-03-17T05:44:10.686Z,979.06
2019-03-17T05:45:10.725Z,978.95
2019-03-17T05:46:10.762Z,978.95
2019-03-17T05:47:10.800Z,978.90
2019-03-17T05:48:10.838Z,978.92
2019-03-17T05:49:10.876Z,978.86
2019-03-17T05:50:10.916Z,978.89
2019-03-17T05:51:10.953Z,978.90
2019-03-17T05:52:10.995Z,978.87
2019-03-17T05:53:11.031Z,978.96
2019-03-17T05:54:11.069Z,978.89
2019-03-17T05:55:11.109Z,978.99
2019-03-17T05:56:11.144Z,978.95
2019-03-17T05:57:11.184Z,978.99
2019-03-17T05:58:11.226Z,978.98
2019-03-17T05:59:11.261Z,978.99
2019-03-17T06:00:11.299Z,979.01
2019-03-17T06:01:11.338Z,979.00
2019-03-17T06:02:11.376Z,978.99
2019-03-17T06:03:11.415Z,979.05
2019-03-17T06:04:11.462Z,979.07
2019-03-17T06:05:11.491Z,979.10
2019-03-17T06:06:11.530Z,979.00
2019-03-17T06:07:18.643Z,979.01
2019-03-17T06:08:11.606Z,978.95
2019-03-17T06:09:11.650Z,978.95
2019-03-17T06:10:11.738Z,978.99
2019-03-17T06:11:11.733Z,979.00
2019-03-17T06:12:11.765Z,978.95
2019-03-17T06:13:11.801Z,978.94
2019-03-17T06:14:11.841Z,978.96
2019-03-17T06:15:11.902Z,979.00
2019-03-17T06:16:11.924Z,979.01
2019-03-17T06:17:11.954Z,978.99
2019-03-17T06:18:11.992Z,979.04
2019-03-17T06:19:12.034Z,979.08
2019-03-17T06:20:12.069Z,979.00
2019-03-17T06:21:12.108Z,979.04
2019-03-17T06:22:12.148Z,979.05
2019-03-17T06:23:12.198Z,979.05
2019-03-17T06:24:12.227Z,979.06
2019-03-17T06:25:12.263Z,979.08
2019-03-17T06:26:12.305Z,979.06
2019-03-17T06:27:12.350Z,979.06
2019-03-17T06:28:12.385Z,979.07
2019-03-17T06:29:12.417Z,979.10
2019-03-17T06:30:12.458Z,979.14
2019-03-17T06:31:12.496Z,979.08
2019-03-17T06:32:12.533Z,979.09
2019-03-17T06:33:12.572Z,979.07
2019-03-17T06:34:12.615Z,979.15
2019-03-17T06:35:12.650Z,979.08
2019-03-17T06:36:12.698Z,979.06
2019-03-17T06:37:12.729Z,979.17
2019-03-17T06:38:12.841Z,979.19
2019-03-17T06:39:12.815Z,979.21
2019-03-17T06:40:12.850Z,979.17
2019-03-17T06:41:12.884Z,979.16
2019-03-17T06:42:12.921Z,979.16
2019-03-17T06:43:12.973Z,979.22
2019-03-17T06:44:13.000Z,979.27
2019-03-17T06:45:13.042Z,979.31
2019-03-17T06:46:13.080Z,979.29
2019-03-17T06:47:13.121Z,979.30
2019-03-17T06:48:13.158Z,979.30
2019-03-17T06:49:13.197Z,979.35
2019-03-17T06:50:13.249Z,979.37
2019-03-17T06:51:13.273Z,979.23
2019-03-17T06:52:13.313Z,979.22
2019-03-17T06:53:13.353Z,979.24
2019-03-17T06:54:13.390Z,979.23
2019-03-17T06:55:13.430Z,979.21
2019-03-17T06:56:13.466Z,979.13
2019-03-17T06:57:13.509Z,979.15
2019-03-17T06:58:13.548Z,979.11
2019-03-17T06:59:13.585Z,979.15
2019-03-17T07:00:13.626Z,979.16
2019-03-17T07:01:13.663Z,979.06
2019-03-17T07:02:13.719Z,979.12
2019-03-17T07:03:13.755Z,979.11
2019-03-17T07:04:13.787Z,979.12
2019-03-17T07:05:13.822Z,979.00
2019-03-17T07:06:13.860Z,979.16
2019-03-17T07:07:13.899Z,979.17
2019-03-17T07:08:13.945Z,979.09
2019-03-17T07:09:13.983Z,979.14
2019-03-17T07:10:14.015Z,979.11
2019-03-17T07:11:14.058Z,979.07
2019-03-17T07:12:14.094Z,979.12
2019-03-17T07:13:14.139Z,979.08
2019-03-17T07:14:14.174Z,979.04
2019-03-17T07:15:14.215Z,979.02
2019-03-17T07:16:14.250Z,979.07
2019-03-17T07:17:14.291Z,979.09
2019-03-17T07:18:14.337Z,979.13
2019-03-17T07:19:14.374Z,979.16
2019-03-17T07:20:14.408Z,979.12
2019-03-17T07:21:14.450Z,979.16
2019-03-17T07:22:14.495Z,979.22
2019-03-17T07:23:14.526Z,979.21
2019-03-17T07:24:14.566Z,979.24
2019-03-17T07:25:14.605Z,979.22
2019-03-17T07:26:14.654Z,979.26
2019-03-17T07:27:14.684Z,979.29
2019-03-17T07:28:14.722Z,979.31
2019-03-17T07:29:14.762Z,979.24
2019-03-17T07:30:14.805Z,979.23
2019-03-17T07:31:14.914Z,979.17
2019-03-17T07:32:14.881Z,979.20
2019-03-17T07:33:14.919Z,979.15
2019-03-17T07:34:14.961Z,979.19
2019-03-17T07:35:14.999Z,979.23
2019-03-17T07:36:15.040Z,979.15
2019-03-17T07:37:15.077Z,979.16
2019-03-17T07:38:15.125Z,979.15
2019-03-17T07:39:15.164Z,979.16
2019-03-17T07:40:15.197Z,979.09
2019-03-17T07:41:15.242Z,979.13
2019-03-17T07:42:15.282Z,979.15
2019-03-17T07:43:15.318Z,979.14
2019-03-17T07:44:15.354Z,979.18
2019-03-17T07:45:15.394Z,979.09
2019-03-17T07:46:15.437Z,979.19
2019-03-17T07:47:15.483Z,979.13
2019-03-17T07:48:15.513Z,979.14
2019-03-17T07:49:15.555Z,979.16
2019-03-17T07:50:15.594Z,979.28
2019-03-17T07:51:15.633Z,979.27
2019-03-17T07:52:15.670Z,979.14
2019-03-17T07:53:15.714Z,979.24
2019-03-17T07:54:15.751Z,979.21
2019-03-17T07:55:15.796Z,979.14
2019-03-17T07:56:15.831Z,979.12
2019-03-17T07:57:15.870Z,979.17
2019-03-17T07:58:15.913Z,979.09
2019-03-17T07:59:15.952Z,979.17
2019-03-17T08:00:15.989Z,979.04
2019-03-17T08:01:16.029Z,979.03
2019-03-17T08:02:16.069Z,979.02
2019-03-17T08:03:16.110Z,979.10
2019-03-17T08:04:16.158Z,979.14
2019-03-17T08:05:16.192Z,979.11
2019-03-17T08:06:16.231Z,979.09
2019-03-17T08:07:16.281Z,979.01
2019-03-17T08:08:16.309Z,979.05
2019-03-17T08:09:16.348Z,979.06
2019-03-17T08:10:16.409Z,979.09
2019-03-17T08:11:16.431Z,979.03
2019-03-17T08:12:16.468Z,978.88
2019-03-17T08:13:16.510Z,978.96
2019-03-17T08:14:16.551Z,978.98
2019-03-17T08:15:16.597Z,979.05
2019-03-17T08:16:16.682Z,979.16
2019-03-17T08:17:16.674Z,979.24
2019-03-17T08:18:16.714Z,979.18
2019-03-17T08:19:16.759Z,979.11
2019-03-17T08:20:16.787Z,979.13
2019-03-17T08:21:16.831Z,979.06
2019-03-17T08:22:16.868Z,979.19
2019-03-17T08:23:16.908Z,979.14
2019-03-17T08:24:16.952Z,979.30
2019-03-17T08:25:17.003Z,979.28
2019-03-17T08:26:17.041Z,979.26
2019-03-17T08:27:17.068Z,979.22
2019-03-17T08:28:17.117Z,979.31
2019-03-17T08:29:17.147Z,979.26
2019-03-17T08:30:17.248Z,979.38
2019-03-17T08:31:17.231Z,979.31
2019-03-17T08:32:17.274Z,979.29
2019-03-17T08:33:17.309Z,979.43
2019-03-17T08:34:17.349Z,979.25
2019-03-17T08:35:17.390Z,979.28
2019-03-17T08:36:17.430Z,979.25
2019-03-17T08:37:17.471Z,979.27
2019-03-17T08:38:22.130Z,979.24
2019-03-17T08:39:17.551Z,979.21
2019-03-17T08:40:17.591Z,979.20
2019-03-17T08:41:17.640Z,979.15
2019-03-17T08:42:17.674Z,979.25
2019-03-17T08:43:17.714Z,979.30
2019-03-17T08:44:17.755Z,979.44
2019-03-17T08:45:17.795Z,979.48
2019-03-17T08:46:17.837Z,979.50
2019-03-17T08:47:17.879Z,979.34
2019-03-17T08:48:17.920Z,979.40
2019-03-17T08:49:17.962Z,979.49
2019-03-17T08:50:18.009Z,979.41
2019-03-17T08:51:18.059Z,979.51
2019-03-17T08:52:18.080Z,979.56
2019-03-17T08:53:18.122Z,979.65
2019-03-17T08:54:18.161Z,979.73
2019-03-17T08:55:18.223Z,979.66
2019-03-17T08:56:18.245Z,979.77
2019-03-17T08:57:18.286Z,979.86
2019-03-17T08:58:18.327Z,979.81
2019-03-17T08:59:18.368Z,979.90
2019-03-17T09:00:18.419Z,979.97
2019-03-17T09:01:18.450Z,979.90
2019-03-17T09:02:18.493Z,979.94
2019-03-17T09:03:18.541Z,979.96
2019-03-17T09:04:18.579Z,980.00
2019-03-17T09:05:18.620Z,979.90
2019-03-17T09:06:18.667Z,979.96
2019-03-17T09:07:18.703Z,979.89
2019-03-17T09:08:18.742Z,979.92
2019-03-17T09:09:18.793Z,980.07
2019-03-17T09:10:18.826Z,979.96
2019-03-17T09:11:18.867Z,980.02
2019-03-17T09:12:18.910Z,980.07
2019-03-17T09:13:18.952Z,980.15
2019-03-17T09:14:19.008Z,980.12
2019-03-17T09:15:19.036Z,980.13
2019-03-17T09:16:19.088Z,980.15
2019-03-17T09:17:19.130Z,980.07
2019-03-17T09:18:19.283Z,980.13
2019-03-17T09:19:19.216Z,980.07
2019-03-17T09:20:19.244Z,980.05
2019-03-17T09:21:19.286Z,980.16
2019-03-17T09:22:19.394Z,980.15
2019-03-17T09:23:19.392Z,980.17
2019-03-17T09:24:19.413Z,980.01
2019-03-17T09:25:19.454Z,979.96
2019-03-17T09:26:19.499Z,979.93
2019-03-17T09:27:19.612Z,979.92
2019-03-17T09:28:19.589Z,979.88
2019-03-17T09:29:21.524Z,979.86
2019-03-17T09:30:19.683Z,979.84
2019-03-17T09:31:19.707Z,979.89
2019-03-17T09:32:19.758Z,979.95
2019-03-17T09:33:19.790Z,979.91
2019-03-17T09:34:19.832Z,980.02
2019-03-17T09:35:19.874Z,980.06
2019-03-17T09:36:19.915Z,980.02
2019-03-17T09:37:19.991Z,980.03
2019-03-17T09:38:20.010Z,979.88
2019-03-17T09:39:20.043Z,979.87
2019-03-17T09:40:20.087Z,979.99
2019-03-17T09:41:20.129Z,979.78
2019-03-17T09:42:20.172Z,979.94
2019-03-17T09:43:20.214Z,979.96
2019-03-17T09:44:20.252Z,979.98
2019-03-17T09:45:20.297Z,979.95
2019-03-17T09:46:20.341Z,980.02
2019-03-17T09:47:20.382Z,979.94
2019-03-17T09:48:20.431Z,979.98
2019-03-17T09:49:20.474Z,980.04
2019-03-17T09:50:20.557Z,979.95
2019-03-17T09:51:20.558Z,979.93
2019-03-17T09:52:20.593Z,979.97
2019-03-17T09:53:20.646Z,980.07
2019-03-17T09:54:20.790Z,980.02
2019-03-17T09:55:20.720Z,979.97
2019-03-17T09:56:20.760Z,979.93
2019-03-17T09:57:20.807Z,980.02
2019-03-17T09:58:20.845Z,980.14
2019-03-17T09:59:20.897Z,980.16
2019-03-17T10:00:20.934Z,980.15
2019-03-17T10:01:20.974Z,980.08
2019-03-17T10:02:21.014Z,980.16
2019-03-17T10:03:21.077Z,980.24
2019-03-17T10:04:21.097Z,979.99
2019-03-17T10:05:21.143Z,980.06
2019-03-17T10:06:21.187Z,979.93
2019-03-17T10:07:21.231Z,979.78
2019-03-17T10:08:21.271Z,979.79
2019-03-17T10:09:21.311Z,979.96
2019-03-17T10:10:21.357Z,980.03
2019-03-17T10:11:21.436Z,980.13
2019-03-17T10:12:21.433Z,980.07
2019-03-17T10:13:21.479Z,980.05
2019-03-17T10:14:21.522Z,980.05
2019-03-17T10:15:21.570Z,980.13
2019-03-17T10:16:21.606Z,980.14
2019-03-17T10:17:21.660Z,980.15
2019-03-17T10:18:21.691Z,980.04
2019-03-17T10:19:21.733Z,980.12
2019-03-17T10:20:21.801Z,980.06
2019-03-17T10:21:21.817Z,980.10
2019-03-17T10:22:21.860Z,980.14
2019-03-17T10:23:21.954Z,980.14
2019-03-17T10:24:21.944Z,980.31
2019-03-17T10:25:21.985Z,980.31
2019-03-17T10:26:22.030Z,980.32
2019-03-17T10:27:22.069Z,980.16
2019-03-17T10:28:22.111Z,980.31
2019-03-17T10:29:22.163Z,980.32
2019-03-17T10:30:22.234Z,980.34
2019-03-17T10:31:22.239Z,980.34
2019-03-17T10:32:22.290Z,980.23
2019-03-17T10:33:22.329Z,980.24
2019-03-17T10:34:22.366Z,980.31
2019-03-17T10:35:22.418Z,980.15
2019-03-17T10:36:22.453Z,980.03
2019-03-17T10:37:22.701Z,980.15
2019-03-17T10:38:22.548Z,980.23
2019-03-17T10:39:22.709Z,980.29
2019-03-17T10:40:22.627Z,980.36
2019-03-17T10:41:22.666Z,980.38
2019-03-17T10:42:22.705Z,980.45
2019-03-17T10:43:22.745Z,980.44
2019-03-17T10:44:22.797Z,980.46
2019-03-17T10:45:22.852Z,980.29
2019-03-17T10:46:22.889Z,980.34
2019-03-17T10:47:22.920Z,980.42
2019-03-17T10:48:22.981Z,980.37
2019-03-17T10:49:22.999Z,980.34
2019-03-17T10:50:23.040Z,980.29
2019-03-17T10:51:23.142Z,980.29
2019-03-17T10:52:23.675Z,980.30
2019-03-17T10:53:23.172Z,980.21
2019-03-17T10:54:23.215Z,980.19
2019-03-17T10:55:23.276Z,980.22
2019-03-17T10:56:23.316Z,980.13
2019-03-17T10:57:23.338Z,980.17
2019-03-17T10:58:23.383Z,980.18
2019-03-17T10:59:23.431Z,980.08
2019-03-17T11:00:23.462Z,980.03
2019-03-17T11:01:23.504Z,980.04
2019-03-17T11:02:23.559Z,980.01
2019-03-17T11:03:23.607Z,980.00
2019-03-17T11:04:23.639Z,979.98
2019-03-17T11:05:23.835Z,979.97
2019-03-17T11:06:23.727Z,980.01
2019-03-17T11:07:23.765Z,980.04
2019-03-17T11:08:23.958Z,980.14
2019-03-17T11:09:25.543Z,980.19
2019-03-17T11:10:23.895Z,980.19
2019-03-17T11:11:23.927Z,980.16
2019-03-17T11:12:23.965Z,980.25
2019-03-17T11:13:24.157Z,980.30
2019-03-17T11:14:24.052Z,980.33
2019-03-17T11:15:24.101Z,980.29
2019-03-17T11:16:24.152Z,980.30
2019-03-17T11:17:24.183Z,980.42
2019-03-17T11:18:24.222Z,980.56
2019-03-17T11:19:25.716Z,980.38
2019-03-17T11:20:24.306Z,980.37
2019-03-17T11:21:24.349Z,980.57
2019-03-17T11:22:24.393Z,980.46
2019-03-17T11:23:24.459Z,980.55
2019-03-17T11:24:24.540Z,980.58
2019-03-17T11:25:24.518Z,980.55
2019-03-17T11:26:24.567Z,980.50
2019-03-17T11:27:24.599Z,980.58
2019-03-17T11:28:24.659Z,980.86
2019-03-17T11:29:24.686Z,980.84
2019-03-17T11:30:24.733Z,981.10
2019-03-17T11:31:24.767Z,981.12
2019-03-17T11:32:24.819Z,981.09
2019-03-17T11:33:24.869Z,981.16
2019-03-17T11:34:24.903Z,981.11
2019-03-17T11:35:24.945Z,981.18
2019-03-17T11:36:24.985Z,981.20
2019-03-17T11:37:25.017Z,981.18
2019-03-17T11:38:25.059Z,981.32
2019-03-17T11:39:36.913Z,981.33
2019-03-17T11:40:25.147Z,981.26
2019-03-17T11:41:25.182Z,981.37
2019-03-17T11:42:25.232Z,981.36
2019-03-17T11:43:25.263Z,981.29
2019-03-17T11:44:25.307Z,981.32
2019-03-17T11:45:25.340Z,981.23
2019-03-17T11:46:25.384Z,981.39
2019-03-17T11:47:25.421Z,981.35
2019-03-17T11:48:25.476Z,981.39
2019-03-17T11:49:25.514Z,981.36
2019-03-17T11:50:25.553Z,981.35
2019-03-17T11:51:25.587Z,981.35
2019-03-17T11:52:25.617Z,981.39
2019-03-17T11:53:25.657Z,981.37
2019-03-17T11:54:25.705Z,981.38
2019-03-17T11:55:25.749Z,981.42
2019-03-17T11:56:25.778Z,981.39
2019-03-17T11:57:25.821Z,981.38
2019-03-17T11:58:25.861Z,981.33
2019-03-17T11:59:25.902Z,981.35
2019-03-17T12:00:25.933Z,981.38
2019-03-17T12:01:25.981Z,981.33
2019-03-17T12:02:27.036Z,981.38
2019-03-17T12:03:26.055Z,981.40
2019-03-17T12:04:26.091Z,981.51
2019-03-17T12:05:26.135Z,981.47
2019-03-17T12:06:26.174Z,981.48
2019-03-17T12:07:26.208Z,981.44
2019-03-17T12:08:26.253Z,981.42
2019-03-17T12:09:29.301Z,981.40
2019-03-17T12:10:26.325Z,981.38
2019-03-17T12:11:26.364Z,981.37
2019-03-17T12:12:26.420Z,981.33
2019-03-17T12:13:26.468Z,981.38
2019-03-17T12:14:26.488Z,981.38
2019-03-17T12:15:26.531Z,981.45
2019-03-17T12:16:26.559Z,981.46
2019-03-17T12:17:26.608Z,981.47
2019-03-17T12:18:26.645Z,981.45
2019-03-17T12:19:26.681Z,981.48
2019-03-17T12:20:26.719Z,981.49
2019-03-17T12:21:26.761Z,981.49
2019-03-17T12:22:26.813Z,981.48
2019-03-17T12:23:26.841Z,981.49
2019-03-17T12:24:26.874Z,981.51
2019-03-17T12:25:26.918Z,981.56
2019-03-17T12:26:26.963Z,981.54
2019-03-17T12:27:27.000Z,981.52
2019-03-17T12:28:27.050Z,981.54
2019-03-17T12:29:27.075Z,981.70